createdAt,value
2018-01-02T00:01:00.508Z,0
2018-01-02T00:02:10.444Z,0
2018-01-02T00:03:20.381Z,0
2018-01-02T00:04:30.321Z,0
2018-01-02T00:05:40.258Z,0
2018-01-02T00:06:50.195Z,0
2018-01-02T00:07:59.917Z,0
2018-01-02T00:09:09.337Z,0
2018-01-02T00:10:19.486Z,0
2018-01-02T00:11:29.444Z,0
2018-01-02T00:12:39.398Z,0
2018-01-02T00:13:49.350Z,0
2018-01-02T00:14:59.322Z,0
2018-01-02T00:16:09.271Z,0
2018-01-02T00:17:19.219Z,0
2018-01-02T00:18:29.173Z,0
2018-01-02T00:19:39.126Z,0
2018-01-02T00:20:49.125Z,0
2018-01-02T00:21:59.065Z,0
2018-01-02T00:23:09.021Z,0
2018-01-02T00:24:18.466Z,0
2018-01-02T00:25:28.421Z,0
2018-01-02T00:26:38.119Z,0
2018-01-02T00:27:48.068Z,0
2018-01-02T00:28:58.022Z,0
2018-01-02T00:30:07.714Z,0
2018-01-02T00:31:17.659Z,0
2018-01-02T00:32:27.344Z,0
2018-01-02T00:33:37.302Z,0
2018-01-02T00:34:47.001Z,0
2018-01-02T00:35:56.701Z,0
2018-01-02T00:37:06.383Z,0
2018-01-02T00:38:16.092Z,0
2018-01-02T00:39:25.280Z,0
2018-01-02T00:40:35.238Z,0
2018-01-02T00:41:45.191Z,0
2018-01-02T00:42:55.116Z,0
2018-01-02T00:44:04.824Z,0
2018-01-02T00:45:14.826Z,0
2018-01-02T00:46:24.786Z,0
2018-01-02T00:47:34.743Z,0
2018-01-02T00:48:44.434Z,0
2018-01-02T00:49:54.374Z,0
2018-01-02T00:51:04.318Z,0
2018-01-02T00:52:14.322Z,0
2018-01-02T00:53:24.267Z,0
2018-01-02T00:54:33.958Z,0
2018-01-02T00:55:43.908Z,0
2018-01-02T00:56:53.843Z,0
2018-01-02T00:58:03.801Z,0
2018-01-02T00:59:13.754Z,0
2018-01-02T01:00:23.695Z,0
2018-01-02T01:01:33.382Z,0
2018-01-02T01:02:43.328Z,0
2018-01-02T01:03:53.021Z,0
2018-01-02T01:05:02.448Z,0
2018-01-02T01:06:11.895Z,0
2018-01-02T01:07:21.830Z,0
2018-01-02T01:08:31.514Z,0
2018-01-02T01:09:41.458Z,0
2018-01-02T01:10:51.414Z,0
2018-01-02T01:12:01.111Z,0
2018-01-02T01:13:10.788Z,0
2018-01-02T01:14:20.497Z,0
2018-01-02T01:15:30.459Z,0
2018-01-02T01:16:40.405Z,0
2018-01-02T01:17:50.369Z,0
2018-01-02T01:19:00.056Z,0
2018-01-02T01:20:09.989Z,0
2018-01-02T01:21:19.698Z,0
2018-01-02T01:22:29.648Z,0
2018-01-02T01:23:39.594Z,0
2018-01-02T01:24:49.287Z,0
2018-01-02T01:25:59.250Z,0
2018-01-02T01:27:08.947Z,0
2018-01-02T01:28:18.642Z,0
2018-01-02T01:29:28.107Z,0
2018-01-02T01:30:38.056Z,0
2018-01-02T01:31:47.746Z,0
2018-01-02T01:32:57.699Z,0
2018-01-02T01:34:07.401Z,0
2018-01-02T01:35:17.344Z,0
2018-01-02T01:36:27.036Z,0
2018-01-02T01:37:37.028Z,0
2018-01-02T01:38:46.471Z,0
2018-01-02T01:39:56.417Z,0
2018-01-02T01:41:06.360Z,0
2018-01-02T01:42:16.304Z,0
2018-01-02T01:43:25.985Z,0
2018-01-02T01:44:35.681Z,0
2018-01-02T01:45:45.774Z,0
2018-01-02T01:46:55.462Z,0
2018-01-02T01:48:05.413Z,0
2018-01-02T01:49:15.101Z,0
2018-01-02T01:50:25.039Z,0
2018-01-02T01:51:34.974Z,0
2018-01-02T01:52:44.930Z,0
2018-01-02T01:53:54.877Z,0
2018-01-02T01:55:04.811Z,0
2018-01-02T01:56:14.759Z,0
2018-01-02T01:57:24.211Z,0
2018-01-02T01:58:34.043Z,0
2018-01-02T01:59:43.733Z,0
2018-01-02T02:00:53.680Z,0
2018-01-02T02:02:03.634Z,0
2018-01-02T02:03:13.584Z,0
2018-01-02T02:04:23.539Z,0
2018-01-02T02:05:33.491Z,0
2018-01-02T02:06:43.172Z,0
2018-01-02T02:07:53.116Z,0
2018-01-02T02:09:02.800Z,0
2018-01-02T02:10:12.232Z,0
2018-01-02T02:11:22.177Z,0
2018-01-02T02:12:32.125Z,0
2018-01-02T02:13:42.065Z,0
2018-01-02T02:14:52.035Z,0
2018-01-02T02:16:01.975Z,0
2018-01-02T02:17:11.907Z,0
2018-01-02T02:18:21.837Z,0
2018-01-02T02:19:31.522Z,0
2018-01-02T02:20:41.469Z,0
2018-01-02T02:21:50.915Z,0
2018-01-02T02:23:00.849Z,0
2018-01-02T02:24:10.805Z,0
2018-01-02T02:25:20.746Z,0
2018-01-02T02:26:30.674Z,0
2018-01-02T02:27:40.611Z,0
2018-01-02T02:28:50.558Z,0
2018-01-02T02:30:00.239Z,0
2018-01-02T02:31:10.184Z,0
2018-01-02T02:32:20.131Z,0
2018-01-02T02:33:30.085Z,0
2018-01-02T02:34:40.039Z,0
2018-01-02T02:35:49.728Z,0
2018-01-02T02:36:59.685Z,0
2018-01-02T02:38:09.669Z,0
2018-01-02T02:39:19.362Z,0
2018-01-02T02:40:29.051Z,0
2018-01-02T02:41:38.992Z,0
2018-01-02T02:42:48.429Z,0
2018-01-02T02:43:58.115Z,0
2018-01-02T02:45:07.801Z,0
2018-01-02T02:46:17.487Z,0
2018-01-02T02:47:27.174Z,0
2018-01-02T02:48:36.953Z,0
2018-01-02T02:49:46.907Z,0
2018-01-02T02:50:56.849Z,0
2018-01-02T02:52:06.292Z,0
2018-01-02T02:53:15.990Z,0
2018-01-02T02:54:25.957Z,0
2018-01-02T02:55:35.888Z,0
2018-01-02T02:56:45.839Z,0
2018-01-02T02:57:55.520Z,0
2018-01-02T02:59:05.462Z,0
2018-01-02T03:00:15.411Z,0
2018-01-02T03:01:25.357Z,0
2018-01-02T03:02:35.301Z,0
2018-01-02T03:03:45.249Z,0
2018-01-02T03:04:55.191Z,0
2018-01-02T03:06:04.883Z,0
2018-01-02T03:07:14.829Z,0
2018-01-02T03:08:24.772Z,0
2018-01-02T03:09:34.719Z,0
2018-01-02T03:10:44.658Z,0
2018-01-02T03:11:54.591Z,0
2018-01-02T03:13:04.537Z,0
2018-01-02T03:14:14.479Z,0
2018-01-02T03:15:24.166Z,0
2018-01-02T03:16:33.847Z,0
2018-01-02T03:17:43.785Z,0
2018-01-02T03:18:53.723Z,0
2018-01-02T03:20:03.675Z,0
2018-01-02T03:21:13.638Z,0
2018-01-02T03:22:23.584Z,0
2018-01-02T03:23:33.523Z,0
2018-01-02T03:24:42.955Z,0
2018-01-02T03:25:52.897Z,0
2018-01-02T03:27:02.853Z,0
2018-01-02T03:28:12.533Z,0
2018-01-02T03:29:22.478Z,0
2018-01-02T03:30:32.463Z,0
2018-01-02T03:31:42.413Z,0
2018-01-02T03:32:52.360Z,0
2018-01-02T03:34:02.043Z,0
2018-01-02T03:35:11.734Z,0
2018-01-02T03:36:21.678Z,0
2018-01-02T03:37:31.626Z,0
2018-01-02T03:38:41.569Z,0
2018-01-02T03:39:51.518Z,0
2018-01-02T03:41:01.474Z,0
2018-01-02T03:42:11.416Z,0
2018-01-02T03:43:21.349Z,0
2018-01-02T03:44:31.282Z,0
2018-01-02T03:45:40.976Z,0
2018-01-02T03:46:50.659Z,0
2018-01-02T03:48:00.602Z,0
2018-01-02T03:49:10.592Z,0
2018-01-02T03:50:20.286Z,0
2018-01-02T03:51:30.219Z,0
2018-01-02T03:52:39.907Z,0
2018-01-02T03:53:49.599Z,0
2018-01-02T03:54:59.544Z,0
2018-01-02T03:56:09.226Z,0
2018-01-02T03:57:18.918Z,0
2018-01-02T03:58:28.869Z,0
2018-01-02T03:59:38.820Z,0
2018-01-02T04:00:48.507Z,0
2018-01-02T04:01:58.446Z,0
2018-01-02T04:03:08.387Z,0
2018-01-02T04:04:18.331Z,0
2018-01-02T04:05:28.288Z,0
2018-01-02T04:06:38.241Z,0
2018-01-02T04:07:47.918Z,0
2018-01-02T04:08:57.864Z,0
2018-01-02T04:10:07.539Z,0
2018-01-02T04:11:16.965Z,0
2018-01-02T04:12:26.902Z,0
2018-01-02T04:13:36.583Z,0
2018-01-02T04:14:46.281Z,0
2018-01-02T04:15:56.217Z,0
2018-01-02T04:17:06.169Z,0
2018-01-02T04:18:16.115Z,0
2018-01-02T04:19:25.576Z,0
2018-01-02T04:20:35.528Z,0
2018-01-02T04:21:45.532Z,0
2018-01-02T04:22:55.223Z,0
2018-01-02T04:24:05.163Z,0
2018-01-02T04:25:14.838Z,0
2018-01-02T04:26:24.776Z,0
2018-01-02T04:27:34.483Z,0
2018-01-02T04:28:44.422Z,0
2018-01-02T04:29:54.103Z,0
2018-01-02T04:31:04.055Z,0
2018-01-02T04:32:14.014Z,0
2018-01-02T04:33:23.943Z,0
2018-01-02T04:34:33.619Z,0
2018-01-02T04:35:43.063Z,0
2018-01-02T04:36:53.008Z,0
2018-01-02T04:38:02.958Z,0
2018-01-02T04:39:12.651Z,0
2018-01-02T04:40:22.076Z,0
2018-01-02T04:41:31.760Z,0
2018-01-02T04:42:41.710Z,0
2018-01-02T04:43:51.648Z,0
2018-01-02T04:45:01.340Z,0
2018-01-02T04:46:11.025Z,0
2018-01-02T04:47:20.713Z,0
2018-01-02T04:48:30.652Z,0
2018-01-02T04:49:40.341Z,0
2018-01-02T04:50:50.277Z,0
2018-01-02T04:51:59.706Z,0
2018-01-02T04:53:09.639Z,0
2018-01-02T04:54:19.369Z,0
2018-01-02T04:55:29.316Z,0
2018-01-02T04:56:38.767Z,0
2018-01-02T04:57:48.701Z,0
2018-01-02T04:58:57.884Z,0
2018-01-02T05:00:07.581Z,0
2018-01-02T05:01:17.273Z,0
2018-01-02T05:02:27.216Z,0
2018-01-02T05:03:37.146Z,0
2018-01-02T05:04:47.086Z,0
2018-01-02T05:05:57.045Z,0
2018-01-02T05:07:06.982Z,0
2018-01-02T05:08:16.921Z,0
2018-01-02T05:09:26.855Z,0
2018-01-02T05:10:36.801Z,0
2018-01-02T05:11:46.736Z,0
2018-01-02T05:12:56.675Z,0
2018-01-02T05:14:06.377Z,0
2018-01-02T05:15:16.318Z,0
2018-01-02T05:16:25.763Z,0
2018-01-02T05:17:35.697Z,0
2018-01-02T05:18:45.637Z,0
2018-01-02T05:19:55.080Z,0
2018-01-02T05:21:05.042Z,0
2018-01-02T05:22:14.988Z,0
2018-01-02T05:23:24.933Z,0
2018-01-02T05:24:34.872Z,0
2018-01-02T05:25:44.572Z,0
2018-01-02T05:26:54.260Z,0
2018-01-02T05:28:04.201Z,0
2018-01-02T05:29:13.900Z,0
2018-01-02T05:30:23.595Z,0
2018-01-02T05:31:33.286Z,0
2018-01-02T05:32:43.233Z,0
2018-01-02T05:33:53.176Z,0
2018-01-02T05:35:02.346Z,0
2018-01-02T05:36:11.514Z,0
2018-01-02T05:37:21.195Z,0
2018-01-02T05:38:30.873Z,0
2018-01-02T05:39:40.809Z,0
2018-01-02T05:40:50.500Z,0
2018-01-02T05:42:00.559Z,0
2018-01-02T05:43:10.505Z,0
2018-01-02T05:44:20.444Z,0
2018-01-02T05:45:29.875Z,0
2018-01-02T05:46:39.565Z,0
2018-01-02T05:47:49.507Z,0
2018-01-02T05:48:59.192Z,0
2018-01-02T05:50:08.930Z,0
2018-01-02T05:51:18.882Z,0
2018-01-02T05:52:28.568Z,0
2018-01-02T05:53:38.503Z,0
2018-01-02T05:54:48.437Z,0
2018-01-02T05:55:58.145Z,0
2018-01-02T05:57:07.575Z,0
2018-01-02T05:58:17.261Z,0
2018-01-02T05:59:26.953Z,0
2018-01-02T06:00:36.890Z,0
2018-01-02T06:01:46.828Z,0
2018-01-02T06:02:56.772Z,0
2018-01-02T06:04:06.741Z,0
2018-01-02T06:05:16.690Z,0
2018-01-02T06:06:26.649Z,0
2018-01-02T06:07:36.594Z,0
2018-01-02T06:08:46.547Z,0
2018-01-02T06:09:56.489Z,0
2018-01-02T06:11:06.171Z,0
2018-01-02T06:12:15.858Z,0
2018-01-02T06:13:25.798Z,0
2018-01-02T06:14:35.229Z,0
2018-01-02T06:15:45.192Z,0
2018-01-02T06:16:55.141Z,0
2018-01-02T06:18:05.079Z,0
2018-01-02T06:19:15.026Z,0
2018-01-02T06:20:24.970Z,0
2018-01-02T06:21:34.657Z,0
2018-01-02T06:22:44.598Z,0
2018-01-02T06:23:54.319Z,0
2018-01-02T06:25:03.747Z,0
2018-01-02T06:26:13.711Z,0
2018-01-02T06:27:23.143Z,0
2018-01-02T06:28:32.588Z,0
2018-01-02T06:29:42.554Z,0
2018-01-02T06:30:52.510Z,0
2018-01-02T06:32:02.461Z,0
2018-01-02T06:33:12.426Z,0
2018-01-02T06:34:22.401Z,0
2018-01-02T06:35:32.334Z,0
2018-01-02T06:36:41.769Z,0
2018-01-02T06:37:51.723Z,0
2018-01-02T06:39:01.662Z,0
2018-01-02T06:40:11.609Z,0
2018-01-02T06:41:21.550Z,0
2018-01-02T06:42:31.242Z,0
2018-01-02T06:43:41.275Z,4
2018-01-02T06:44:51.211Z,4
2018-01-02T06:46:01.149Z,4
2018-01-02T06:47:11.110Z,4
2018-01-02T06:48:20.546Z,0
2018-01-02T06:49:30.231Z,4
2018-01-02T06:50:40.179Z,4
2018-01-02T06:51:50.133Z,4
2018-01-02T06:53:00.087Z,4
2018-01-02T06:54:09.776Z,4
2018-01-02T06:55:19.716Z,4
2018-01-02T06:56:29.670Z,4
2018-01-02T06:57:39.861Z,4
2018-01-02T06:58:49.808Z,4
2018-01-02T06:59:59.759Z,4
2018-01-02T07:01:09.455Z,8
2018-01-02T07:02:19.146Z,8
2018-01-02T07:03:28.829Z,8
2018-01-02T07:04:38.787Z,12
2018-01-02T07:05:48.472Z,20
2018-01-02T07:06:58.459Z,24
2018-01-02T07:08:08.165Z,36
2018-01-02T07:09:18.102Z,44
2018-01-02T07:10:28.053Z,44
2018-01-02T07:11:38.001Z,44
2018-01-02T07:12:47.697Z,60
2018-01-02T07:13:57.648Z,92
2018-01-02T07:15:07.625Z,120
2018-01-02T07:16:17.600Z,140
2018-01-02T07:17:27.538Z,164
2018-01-02T07:18:37.231Z,148
2018-01-02T07:19:47.178Z,144
2018-01-02T07:20:56.870Z,160
2018-01-02T07:22:06.818Z,164
2018-01-02T07:23:16.770Z,196
2018-01-02T07:24:26.733Z,192
2018-01-02T07:25:36.424Z,232
2018-01-02T07:26:46.118Z,244
2018-01-02T07:27:56.076Z,264
2018-01-02T07:29:06.039Z,288
2018-01-02T07:30:15.991Z,300
2018-01-02T07:31:25.947Z,308
2018-01-02T07:32:35.906Z,400
2018-01-02T07:33:45.586Z,416
2018-01-02T07:34:55.282Z,372
2018-01-02T07:36:05.226Z,400
2018-01-02T07:37:15.174Z,380
2018-01-02T07:38:24.613Z,420
2018-01-02T07:39:34.558Z,476
2018-01-02T07:40:44.507Z,484
2018-01-02T07:41:54.459Z,488
2018-01-02T07:43:04.146Z,600
2018-01-02T07:44:14.091Z,668
2018-01-02T07:45:24.028Z,744
2018-01-02T07:46:33.975Z,948
2018-01-02T07:47:43.922Z,1172
2018-01-02T07:48:53.602Z,1400
2018-01-02T07:50:03.285Z,1580
2018-01-02T07:51:13.237Z,1640
2018-01-02T07:52:23.178Z,1644
2018-01-02T07:53:32.862Z,1680
2018-01-02T07:54:42.554Z,1788
2018-01-02T07:55:52.501Z,1640
2018-01-02T07:57:02.469Z,1552
2018-01-02T07:58:12.148Z,1324
2018-01-02T07:59:22.156Z,1324
2018-01-02T08:00:32.096Z,1284
2018-01-02T08:01:42.050Z,1340
2018-01-02T08:02:51.992Z,1456
2018-01-02T08:04:01.939Z,1608
2018-01-02T08:05:11.629Z,1508
2018-01-02T08:06:21.366Z,1716
2018-01-02T08:07:31.054Z,2088
2018-01-02T08:08:41.000Z,2376
2018-01-02T08:09:50.955Z,2500
2018-01-02T08:11:00.911Z,2856
2018-01-02T08:12:10.591Z,2804
2018-01-02T08:13:20.527Z,2520
2018-01-02T08:14:30.482Z,2364
2018-01-02T08:15:40.182Z,2232
2018-01-02T08:16:50.118Z,1924
2018-01-02T08:17:59.812Z,1760
2018-01-02T08:19:09.752Z,1720
2018-01-02T08:20:19.460Z,1576
2018-01-02T08:21:29.398Z,1488
2018-01-02T08:22:39.096Z,1632
2018-01-02T08:23:49.038Z,1764
2018-01-02T08:24:58.980Z,1844
2018-01-02T08:26:08.673Z,2648
2018-01-02T08:27:18.357Z,3404
2018-01-02T08:28:28.352Z,3896
2018-01-02T08:29:37.529Z,3864
2018-01-02T08:30:47.222Z,3704
2018-01-02T08:31:57.172Z,3616
2018-01-02T08:33:06.856Z,3676
2018-01-02T08:34:16.545Z,3820
2018-01-02T08:35:26.492Z,3384
2018-01-02T08:36:35.933Z,3064
2018-01-02T08:37:45.886Z,2760
2018-01-02T08:38:55.810Z,2908
2018-01-02T08:40:05.757Z,2588
2018-01-02T08:41:15.714Z,2784
2018-01-02T08:42:25.396Z,2476
2018-01-02T08:43:35.100Z,2304
2018-01-02T08:44:45.057Z,2676
2018-01-02T08:45:55.009Z,2820
2018-01-02T08:47:04.953Z,3292
2018-01-02T08:48:14.905Z,3360
2018-01-02T08:49:24.853Z,3760
2018-01-02T08:50:34.793Z,3492
2018-01-02T08:51:44.729Z,2424
2018-01-02T08:52:54.722Z,2240
2018-01-02T08:54:04.425Z,2108
2018-01-02T08:55:14.116Z,2264
2018-01-02T08:56:24.098Z,2420
2018-01-02T08:57:34.042Z,2664
2018-01-02T08:58:44.004Z,2384
2018-01-02T08:59:53.944Z,2584
2018-01-02T09:01:03.906Z,2476
2018-01-02T09:02:13.359Z,2628
2018-01-02T09:03:23.569Z,3144
2018-01-02T09:04:33.522Z,3552
2018-01-02T09:05:43.705Z,4016
2018-01-02T09:06:53.642Z,4260
2018-01-02T09:08:03.593Z,4300
2018-01-02T09:09:13.294Z,3848
2018-01-02T09:10:22.742Z,3844
2018-01-02T09:11:32.427Z,3424
2018-01-02T09:12:41.874Z,3724
2018-01-02T09:13:51.828Z,3600
2018-01-02T09:15:01.527Z,3908
2018-01-02T09:16:11.220Z,3892
2018-01-02T09:17:21.166Z,3500
2018-01-02T09:18:31.114Z,3468
2018-01-02T09:19:40.796Z,3756
2018-01-02T09:20:50.731Z,4860
2018-01-02T09:22:00.679Z,5808
2018-01-02T09:23:10.382Z,5536
2018-01-02T09:24:19.818Z,4752
2018-01-02T09:25:29.502Z,4560
2018-01-02T09:26:39.458Z,3896
2018-01-02T09:27:49.148Z,3592
2018-01-02T09:28:58.836Z,3260
2018-01-02T09:30:08.777Z,3180
2018-01-02T09:31:18.537Z,2924
2018-01-02T09:32:28.484Z,2820
2018-01-02T09:33:38.428Z,2680
2018-01-02T09:34:48.375Z,2556
2018-01-02T09:35:58.322Z,2440
2018-01-02T09:37:08.272Z,2788
2018-01-02T09:38:18.384Z,2792
2018-01-02T09:39:28.355Z,2976
2018-01-02T09:40:38.309Z,2668
2018-01-02T09:41:48.304Z,2716
2018-01-02T09:42:58.240Z,1996
2018-01-02T09:44:07.944Z,1804
2018-01-02T09:45:17.895Z,1644
2018-01-02T09:46:27.835Z,1760
2018-01-02T09:47:37.265Z,1832
2018-01-02T09:48:47.214Z,1952
2018-01-02T09:49:57.232Z,2056
2018-01-02T09:51:06.916Z,2340
2018-01-02T09:52:16.607Z,2428
2018-01-02T09:53:26.560Z,2596
2018-01-02T09:54:36.512Z,4240
2018-01-02T09:55:46.464Z,5080
2018-01-02T09:56:56.420Z,4724
2018-01-02T09:58:06.363Z,4312
2018-01-02T09:59:16.307Z,4736
2018-01-02T10:00:25.986Z,4728
2018-01-02T10:01:35.926Z,5400
2018-01-02T10:02:45.901Z,5200
2018-01-02T10:03:55.866Z,4672
2018-01-02T10:05:05.811Z,4248
2018-01-02T10:06:15.503Z,4676
2018-01-02T10:07:25.457Z,5128
2018-01-02T10:08:35.150Z,4796
2018-01-02T10:09:44.830Z,4912
2018-01-02T10:10:54.535Z,5564
2018-01-02T10:12:04.482Z,4608
2018-01-02T10:13:14.446Z,5348
2018-01-02T10:14:23.869Z,5536
2018-01-02T10:15:33.812Z,4956
2018-01-02T10:16:43.756Z,4948
2018-01-02T10:17:53.446Z,4864
2018-01-02T10:19:03.384Z,5056
2018-01-02T10:20:13.130Z,4684
2018-01-02T10:21:23.074Z,4644
2018-01-02T10:22:33.031Z,5320
2018-01-02T10:23:42.991Z,5452
2018-01-02T10:24:52.940Z,5696
2018-01-02T10:26:02.885Z,5700
2018-01-02T10:27:12.569Z,5188
2018-01-02T10:28:22.278Z,4360
2018-01-02T10:29:32.234Z,4276
2018-01-02T10:30:41.927Z,4416
2018-01-02T10:31:51.935Z,4452
2018-01-02T10:33:01.881Z,4004
2018-01-02T10:34:11.851Z,3948
2018-01-02T10:35:21.877Z,4348
2018-01-02T10:36:31.826Z,4688
2018-01-02T10:37:41.766Z,5020
2018-01-02T10:38:51.717Z,5296
2018-01-02T10:40:01.696Z,4976
2018-01-02T10:41:11.656Z,5204
2018-01-02T10:42:21.618Z,5088
2018-01-02T10:43:31.314Z,5444
2018-01-02T10:44:41.257Z,6016
2018-01-02T10:45:51.215Z,6440
2018-01-02T10:47:01.218Z,7252
2018-01-02T10:48:11.189Z,6916
2018-01-02T10:49:21.150Z,6664
2018-01-02T10:50:31.327Z,6268
2018-01-02T10:51:41.282Z,5116
2018-01-02T10:52:51.228Z,4900
2018-01-02T10:54:01.193Z,4756
2018-01-02T10:55:11.147Z,4504
2018-01-02T10:56:20.844Z,4416
2018-01-02T10:57:30.549Z,3720
2018-01-02T10:58:40.493Z,3216
2018-01-02T10:59:50.457Z,3076
2018-01-02T11:01:00.399Z,3888
2018-01-02T11:02:10.346Z,3952
2018-01-02T11:03:20.291Z,3644
2018-01-02T11:04:29.992Z,3588
2018-01-02T11:05:39.941Z,4728
2018-01-02T11:06:49.877Z,4316
2018-01-02T11:07:59.570Z,4268
2018-01-02T11:09:09.536Z,3640
2018-01-02T11:10:19.221Z,3820
2018-01-02T11:11:29.172Z,4120
2018-01-02T11:12:39.129Z,3884
2018-01-02T11:13:49.084Z,3992
2018-01-02T11:14:59.035Z,4004
2018-01-02T11:16:09.004Z,4184
2018-01-02T11:17:18.711Z,4228
2018-01-02T11:18:28.405Z,3920
2018-01-02T11:19:38.097Z,3424
2018-01-02T11:20:48.044Z,3444
2018-01-02T11:21:57.748Z,3244
2018-01-02T11:23:07.694Z,3316
2018-01-02T11:24:17.655Z,3092
2018-01-02T11:25:27.337Z,3340
2018-01-02T11:26:36.767Z,3092
2018-01-02T11:27:46.712Z,2948
2018-01-02T11:28:56.404Z,3056
2018-01-02T11:30:06.348Z,2856
2018-01-02T11:31:16.039Z,2896
2018-01-02T11:32:25.990Z,3640
2018-01-02T11:33:35.686Z,3048
2018-01-02T11:34:45.632Z,3492
2018-01-02T11:35:55.579Z,2980
2018-01-02T11:37:05.529Z,4280
2018-01-02T11:38:15.471Z,5424
2018-01-02T11:39:25.441Z,4920
2018-01-02T11:40:35.414Z,4644
2018-01-02T11:41:45.366Z,4336
2018-01-02T11:42:55.398Z,4940
2018-01-02T11:44:05.340Z,4904
2018-01-02T11:45:15.293Z,4940
2018-01-02T11:46:24.976Z,4824
2018-01-02T11:47:34.662Z,5048
2018-01-02T11:48:44.100Z,5472
2018-01-02T11:49:54.154Z,5892
2018-01-02T11:51:03.846Z,6600
2018-01-02T11:52:13.796Z,5740
2018-01-02T11:53:23.491Z,4428
2018-01-02T11:54:33.188Z,3564
2018-01-02T11:55:43.170Z,3556
2018-01-02T11:56:53.116Z,2660
2018-01-02T11:58:03.061Z,3076
2018-01-02T11:59:13.258Z,2788
2018-01-02T12:00:23.215Z,2744
2018-01-02T12:01:32.913Z,2288
2018-01-02T12:02:42.341Z,2112
2018-01-02T12:03:52.042Z,2156
2018-01-02T12:05:01.761Z,2240
2018-01-02T12:06:11.466Z,2612
2018-01-02T12:07:21.430Z,2964
2018-01-02T12:08:31.379Z,3424
2018-01-02T12:09:41.327Z,3912
2018-01-02T12:10:51.291Z,4364
2018-01-02T12:12:01.257Z,4368
2018-01-02T12:13:11.222Z,4508
2018-01-02T12:14:20.921Z,5000
2018-01-02T12:15:30.872Z,4760
2018-01-02T12:16:40.592Z,5112
2018-01-02T12:17:50.532Z,4840
2018-01-02T12:18:59.701Z,5400
2018-01-02T12:20:09.638Z,5248
2018-01-02T12:21:18.807Z,6100
2018-01-02T12:22:28.519Z,6412
2018-01-02T12:23:38.541Z,6996
2018-01-02T12:24:48.491Z,6232
2018-01-02T12:25:58.436Z,5396
2018-01-02T12:27:08.389Z,5356
2018-01-02T12:28:18.340Z,5064
2018-01-02T12:29:28.033Z,4644
2018-01-02T12:30:37.224Z,3892
2018-01-02T12:31:46.913Z,3876
2018-01-02T12:32:56.862Z,3288
2018-01-02T12:34:06.826Z,3384
2018-01-02T12:35:16.540Z,2780
2018-01-02T12:36:26.484Z,2624
2018-01-02T12:37:36.453Z,2576
2018-01-02T12:38:46.437Z,2352
2018-01-02T12:39:56.471Z,2496
2018-01-02T12:41:06.438Z,3000
2018-01-02T12:42:16.148Z,5108
2018-01-02T12:43:26.111Z,7300
2018-01-02T12:44:36.069Z,5860
2018-01-02T12:45:46.025Z,5720
2018-01-02T12:46:55.999Z,5960
2018-01-02T12:48:05.946Z,7524
2018-01-02T12:49:15.894Z,7508
2018-01-02T12:50:25.841Z,8416
2018-01-02T12:51:35.280Z,9660
2018-01-02T12:52:45.244Z,8492
2018-01-02T12:53:54.941Z,6292
2018-01-02T12:55:04.403Z,5780
2018-01-02T12:56:14.141Z,4656
2018-01-02T12:57:23.819Z,3796
2018-01-02T12:58:33.759Z,3448
2018-01-02T12:59:43.724Z,3372
2018-01-02T13:00:53.670Z,3208
2018-01-02T13:02:03.359Z,2832
2018-01-02T13:03:13.304Z,2200
2018-01-02T13:04:23.258Z,1912
2018-01-02T13:05:33.220Z,1852
2018-01-02T13:06:43.192Z,2064
2018-01-02T13:07:53.137Z,2416
2018-01-02T13:09:03.095Z,2280
2018-01-02T13:10:12.792Z,2324
2018-01-02T13:11:22.757Z,2288
2018-01-02T13:12:32.718Z,2352
2018-01-02T13:13:42.674Z,1960
2018-01-02T13:14:52.625Z,1644
2018-01-02T13:16:02.314Z,1420
2018-01-02T13:17:12.029Z,1476
2018-01-02T13:18:21.807Z,1948
2018-01-02T13:19:31.785Z,2084
2018-01-02T13:20:41.740Z,2140
2018-01-02T13:24:05.120Z,3176
2018-01-02T13:25:14.816Z,3568
2018-01-02T13:26:24.527Z,3648
2018-01-02T13:27:33.970Z,3240
2018-01-02T13:28:43.918Z,3096
2018-01-02T13:29:53.615Z,2844
2018-01-02T13:31:03.572Z,2480
2018-01-02T13:32:13.539Z,2040
2018-01-02T13:33:23.231Z,1684
2018-01-02T13:34:33.191Z,1408
2018-01-02T13:35:42.885Z,1584
2018-01-02T13:36:52.962Z,1504
2018-01-02T13:38:02.917Z,1988
2018-01-02T13:39:12.885Z,2252
2018-01-02T13:40:22.828Z,2416
2018-01-02T13:41:32.830Z,2296
2018-01-02T13:42:42.263Z,2556
2018-01-02T13:43:52.208Z,3072
2018-01-02T13:45:01.900Z,3620
2018-01-02T13:46:11.347Z,2996
2018-01-02T13:47:21.296Z,2424
2018-01-02T13:48:31.249Z,1448
2018-01-02T13:49:41.202Z,896
2018-01-02T13:50:50.996Z,768
2018-01-02T13:52:00.692Z,756
2018-01-02T13:53:10.380Z,828
2018-01-02T13:54:20.329Z,892
2018-01-02T13:55:30.274Z,812
2018-01-02T13:56:39.969Z,1036
2018-01-02T13:57:49.952Z,1096
2018-01-02T13:58:59.693Z,1264
2018-01-02T14:00:09.644Z,1436
2018-01-02T14:01:19.598Z,1364
2018-01-02T14:02:29.549Z,1644
2018-01-02T14:03:39.506Z,1836
2018-01-02T14:04:49.454Z,1836
2018-01-02T14:05:59.415Z,2056
2018-01-02T14:07:09.393Z,2212
2018-01-02T14:08:19.083Z,1872
2018-01-02T14:09:29.054Z,1716
2018-01-02T14:10:39.070Z,1988
2018-01-02T14:11:49.013Z,1908
2018-01-02T14:12:58.960Z,1700
2018-01-02T14:14:08.937Z,2084
2018-01-02T14:15:18.875Z,2496
2018-01-02T14:16:28.563Z,2488
2018-01-02T14:17:38.514Z,2352
2018-01-02T14:18:48.474Z,2516
2018-01-02T14:19:58.166Z,2344
2018-01-02T14:21:08.111Z,2260
2018-01-02T14:22:17.806Z,2160
2018-01-02T14:23:27.504Z,2148
2018-01-02T14:24:37.458Z,1976
2018-01-02T14:25:47.171Z,2140
2018-01-02T14:26:57.121Z,2044
2018-01-02T14:28:07.084Z,1792
2018-01-02T14:29:16.800Z,1940
2018-01-02T14:30:26.238Z,1796
2018-01-02T14:31:36.186Z,1472
2018-01-02T14:32:46.125Z,1280
2018-01-02T14:33:56.078Z,1304
2018-01-02T14:35:05.770Z,1472
2018-01-02T14:36:15.723Z,1540
2018-01-02T14:37:25.423Z,1444
2018-01-02T14:38:35.129Z,1200
2018-01-02T14:39:44.586Z,896
2018-01-02T14:40:54.548Z,688
2018-01-02T14:42:04.509Z,640
2018-01-02T14:43:14.461Z,656
2018-01-02T14:44:24.421Z,600
2018-01-02T14:45:34.386Z,540
2018-01-02T14:46:44.329Z,520
2018-01-02T14:47:54.282Z,400
2018-01-02T14:49:03.983Z,332
2018-01-02T14:50:13.944Z,308
2018-01-02T14:51:23.885Z,292
2018-01-02T14:52:33.866Z,308
2018-01-02T14:53:43.839Z,300
2018-01-02T14:54:53.796Z,252
2018-01-02T14:56:03.747Z,228
2018-01-02T14:57:13.698Z,184
2018-01-02T14:58:23.658Z,156
2018-01-02T14:59:33.354Z,140
2018-01-02T15:00:43.043Z,112
2018-01-02T15:01:52.998Z,108
2018-01-02T15:03:02.945Z,100
2018-01-02T15:04:12.907Z,112
2018-01-02T15:05:22.961Z,124
2018-01-02T15:06:32.679Z,124
2018-01-02T15:07:42.627Z,120
2018-01-02T15:08:52.320Z,124
2018-01-02T15:10:02.273Z,136
2018-01-02T15:11:12.241Z,152
2018-01-02T15:12:21.947Z,176
2018-01-02T15:13:31.381Z,200
2018-01-02T15:14:40.821Z,196
2018-01-02T15:15:50.777Z,180
2018-01-02T15:17:00.471Z,148
2018-01-02T15:18:10.414Z,120
2018-01-02T15:19:20.412Z,96
2018-01-02T15:20:30.373Z,72
2018-01-02T15:21:40.079Z,64
2018-01-02T15:22:49.511Z,48
2018-01-02T15:23:58.993Z,40
2018-01-02T15:25:08.951Z,28
2018-01-02T15:26:18.913Z,20
2018-01-02T15:27:28.858Z,16
2018-01-02T15:28:38.798Z,12
2018-01-02T15:29:48.753Z,12
2018-01-02T15:30:58.198Z,8
2018-01-02T15:32:07.882Z,8
2018-01-02T15:33:17.842Z,4
2018-01-02T15:34:27.791Z,4
2018-01-02T15:35:37.752Z,4
2018-01-02T15:36:47.702Z,4
2018-01-02T15:37:57.392Z,0
2018-01-02T15:39:07.347Z,4
2018-01-02T15:40:16.776Z,4
2018-01-02T15:41:26.735Z,0
2018-01-02T15:42:36.451Z,0
2018-01-02T15:43:46.461Z,0
2018-01-02T15:44:56.427Z,0
2018-01-02T15:46:06.122Z,0
2018-01-02T15:47:16.080Z,0
2018-01-02T15:48:25.776Z,0
2018-01-02T15:49:35.484Z,0
2018-01-02T15:50:45.183Z,0
2018-01-02T15:51:55.135Z,0
2018-01-02T15:53:05.082Z,0
2018-01-02T15:54:15.042Z,0
2018-01-02T15:55:25.007Z,0
2018-01-02T15:56:34.953Z,0
2018-01-02T15:57:44.663Z,0
2018-01-02T15:58:54.632Z,0
2018-01-02T16:00:04.329Z,0
2018-01-02T16:01:14.033Z,0
2018-01-02T16:02:23.990Z,0
2018-01-02T16:03:33.953Z,0
2018-01-02T16:04:43.641Z,0
2018-01-02T16:05:53.332Z,0
2018-01-02T16:07:03.280Z,0
2018-01-02T16:08:13.258Z,0
2018-01-02T16:09:23.370Z,0
2018-01-02T16:10:33.337Z,0
2018-01-02T16:11:43.741Z,0
2018-01-02T16:12:53.187Z,0
2018-01-02T16:14:02.895Z,0
2018-01-02T16:15:12.581Z,0
2018-01-02T16:16:22.010Z,0
2018-01-02T16:17:31.962Z,0
2018-01-02T16:18:41.905Z,0
2018-01-02T16:19:51.866Z,0
2018-01-02T16:21:01.820Z,0
2018-01-02T16:22:11.522Z,0
2018-01-02T16:23:21.478Z,0
2018-01-02T16:24:31.461Z,0